sensor_id;sensor_type;location;lat;lon;timestamp;P1;durP1;ratioP1;P2;durP2;ratioP2
64520;SDS011;50896;46.714;17.322;2023-08-06T00:00:55;0.40;;;0.40;;
64520;SDS011;50896;46.714;17.322;2023-08-06T00:03:22;0.57;;;0.40;;
64520;SDS011;50896;46.714;17.322;2023-08-06T00:05:49;1.00;;;0.55;;
64520;SDS011;50896;46.714;17.322;2023-08-06T00:08:16;2.90;;;0.50;;
64520;SDS011;50896;46.714;17.322;2023-08-06T00:10:43;1.17;;;0.60;;
64520;SDS011;50896;46.714;17.322;2023-08-06T00:13:10;0.85;;;0.70;;
64520;SDS011;50896;46.714;17.322;2023-08-06T00:15:37;2.92;;;0.90;;
64520;SDS011;50896;46.714;17.322;2023-08-06T00:18:03;2.17;;;0.52;;
64520;SDS011;50896;46.714;17.322;2023-08-06T00:20:30;3.72;;;0.70;;
64520;SDS011;50896;46.714;17.322;2023-08-06T00:22:57;2.15;;;0.50;;
64520;SDS011;50896;46.714;17.322;2023-08-06T00:25:24;1.15;;;0.55;;
64520;SDS011;50896;46.714;17.322;2023-08-06T00:27:51;2.25;;;0.90;;
64520;SDS011;50896;46.714;17.322;2023-08-06T00:30:18;2.38;;;0.63;;
64520;SDS011;50896;46.714;17.322;2023-08-06T00:32:44;5.65;;;0.70;;
64520;SDS011;50896;46.714;17.322;2023-08-06T00:35:11;1.65;;;0.65;;
64520;SDS011;50896;46.714;17.322;2023-08-06T00:37:39;0.57;;;0.57;;
64520;SDS011;50896;46.714;17.322;2023-08-06T00:40:07;1.73;;;0.57;;
64520;SDS011;50896;46.714;17.322;2023-08-06T00:42:35;2.33;;;0.70;;
64520;SDS011;50896;46.714;17.322;2023-08-06T00:45:01;0.88;;;0.57;;
64520;SDS011;50896;46.714;17.322;2023-08-06T00:47:29;2.10;;;0.82;;
64520;SDS011;50896;46.714;17.322;2023-08-06T00:49:56;0.73;;;0.40;;
64520;SDS011;50896;46.714;17.322;2023-08-06T00:52:23;1.88;;;0.88;;
64520;SDS011;50896;46.714;17.322;2023-08-06T00:54:51;2.55;;;0.63;;
64520;SDS011;50896;46.714;17.322;2023-08-06T00:57:17;7.63;;;1.00;;
64520;SDS011;50896;46.714;17.322;2023-08-06T00:59:45;0.75;;;0.57;;
64520;SDS011;50896;46.714;17.322;2023-08-06T01:02:12;1.30;;;0.50;;
64520;SDS011;50896;46.714;17.322;2023-08-06T01:04:39;1.63;;;0.50;;
64520;SDS011;50896;46.714;17.322;2023-08-06T01:13:33;0.70;;;0.55;;
64520;SDS011;50896;46.714;17.322;2023-08-06T01:16:16;0.50;;;0.33;;
64520;SDS011;50896;46.714;17.322;2023-08-06T01:18:44;1.60;;;0.45;;
64520;SDS011;50896;46.714;17.322;2023-08-06T01:21:16;2.60;;;0.40;;
64520;SDS011;50896;46.714;17.322;2023-08-06T01:23:44;2.60;;;0.30;;
64520;SDS011;50896;46.714;17.322;2023-08-06T01:29:34;4.82;;;0.50;;
64520;SDS011;50896;46.714;17.322;2023-08-06T01:32:05;1.85;;;0.40;;
64520;SDS011;50896;46.714;17.322;2023-08-06T01:34:37;0.65;;;0.40;;
64520;SDS011;50896;46.714;17.322;2023-08-06T01:39:33;1.13;;;0.82;;
64520;SDS011;50896;46.714;17.322;2023-08-06T01:42:02;1.13;;;0.60;;
64520;SDS011;50896;46.714;17.322;2023-08-06T01:44:29;1.23;;;0.57;;
64520;SDS011;50896;46.714;17.322;2023-08-06T01:46:58;1.27;;;0.40;;
64520;SDS011;50896;46.714;17.322;2023-08-06T01:49:25;0.55;;;0.45;;
64520;SDS011;50896;46.714;17.322;2023-08-06T01:51:53;1.00;;;0.30;;
64520;SDS011;50896;46.714;17.322;2023-08-06T01:54:20;1.85;;;0.40;;
64520;SDS011;50896;46.714;17.322;2023-08-06T01:56:46;1.85;;;0.40;;
64520;SDS011;50896;46.714;17.322;2023-08-06T01:59:13;2.70;;;0.40;;
64520;SDS011;50896;46.714;17.322;2023-08-06T02:01:40;1.00;;;0.35;;
64520;SDS011;50896;46.714;17.322;2023-08-06T02:04:07;0.22;;;0.20;;
64520;SDS011;50896;46.714;17.322;2023-08-06T02:06:34;2.15;;;0.47;;
64520;SDS011;50896;46.714;17.322;2023-08-06T02:09:01;0.55;;;0.30;;
64520;SDS011;50896;46.714;17.322;2023-08-06T02:11:28;1.80;;;0.40;;
64520;SDS011;50896;46.714;17.322;2023-08-06T02:13:55;1.30;;;0.35;;
64520;SDS011;50896;46.714;17.322;2023-08-06T02:16:21;0.35;;;0.20;;
64520;SDS011;50896;46.714;17.322;2023-08-06T02:18:49;1.10;;;0.35;;
64520;SDS011;50896;46.714;17.322;2023-08-06T02:21:15;4.15;;;0.40;;
64520;SDS011;50896;46.714;17.322;2023-08-06T02:23:42;0.38;;;0.30;;
64520;SDS011;50896;46.714;17.322;2023-08-06T02:26:10;1.15;;;0.30;;
64520;SDS011;50896;46.714;17.322;2023-08-06T02:28:37;0.50;;;0.20;;
64520;SDS011;50896;46.714;17.322;2023-08-06T02:31:03;2.60;;;0.15;;
64520;SDS011;50896;46.714;17.322;2023-08-06T02:33:30;1.50;;;0.32;;
64520;SDS011;50896;46.714;17.322;2023-08-06T02:36:03;2.30;;;0.28;;
64520;SDS011;50896;46.714;17.322;2023-08-06T02:38:31;0.57;;;0.28;;
64520;SDS011;50896;46.714;17.322;2023-08-06T02:40:58;0.47;;;0.20;;
64520;SDS011;50896;46.714;17.322;2023-08-06T02:43:25;1.63;;;0.20;;
64520;SDS011;50896;46.714;17.322;2023-08-06T02:45:56;0.10;;;0.10;;
64520;SDS011;50896;46.714;17.322;2023-08-06T02:48:23;1.67;;;0.20;;
64520;SDS011;50896;46.714;17.322;2023-08-06T02:50:50;0.43;;;0.20;;
64520;SDS011;50896;46.714;17.322;2023-08-06T02:53:17;1.38;;;0.28;;
64520;SDS011;50896;46.714;17.322;2023-08-06T02:55:48;2.03;;;0.30;;
64520;SDS011;50896;46.714;17.322;2023-08-06T02:58:19;0.30;;;0.30;;
64520;SDS011;50896;46.714;17.322;2023-08-06T03:01:00;1.70;;;0.30;;
64520;SDS011;50896;46.714;17.322;2023-08-06T03:03:32;0.70;;;0.40;;
64520;SDS011;50896;46.714;17.322;2023-08-06T03:08:39;3.85;;;0.55;;
64520;SDS011;50896;46.714;17.322;2023-08-06T03:11:07;5.07;;;0.43;;
64520;SDS011;50896;46.714;17.322;2023-08-06T03:13:34;2.28;;;0.43;;
64520;SDS011;50896;46.714;17.322;2023-08-06T03:16:01;4.60;;;0.50;;
64520;SDS011;50896;46.714;17.322;2023-08-06T03:18:29;2.05;;;0.50;;
64520;SDS011;50896;46.714;17.322;2023-08-06T03:20:59;3.10;;;0.50;;
64520;SDS011;50896;46.714;17.322;2023-08-06T03:23:28;4.50;;;0.93;;
64520;SDS011;50896;46.714;17.322;2023-08-06T03:25:56;1.60;;;0.50;;
64520;SDS011;50896;46.714;17.322;2023-08-06T03:28:28;1.48;;;0.50;;
64520;SDS011;50896;46.714;17.322;2023-08-06T03:30:58;2.15;;;0.50;;
64520;SDS011;50896;46.714;17.322;2023-08-06T03:33:30;3.67;;;0.50;;
64520;SDS011;50896;46.714;17.322;2023-08-06T03:35:59;5.00;;;0.50;;
64520;SDS011;50896;46.714;17.322;2023-08-06T03:38:27;1.90;;;0.40;;
64520;SDS011;50896;46.714;17.322;2023-08-06T03:40:54;1.65;;;0.40;;
64520;SDS011;50896;46.714;17.322;2023-08-06T03:43:21;2.30;;;0.40;;
64520;SDS011;50896;46.714;17.322;2023-08-06T03:45:48;1.17;;;0.38;;
64520;SDS011;50896;46.714;17.322;2023-08-06T03:48:14;1.15;;;0.40;;
64520;SDS011;50896;46.714;17.322;2023-08-06T03:50:41;1.17;;;0.20;;
64520;SDS011;50896;46.714;17.322;2023-08-06T03:53:12;2.05;;;0.35;;
64520;SDS011;50896;46.714;17.322;2023-08-06T03:55:39;0.90;;;0.20;;
64520;SDS011;50896;46.714;17.322;2023-08-06T03:58:06;0.80;;;0.30;;
64520;SDS011;50896;46.714;17.322;2023-08-06T04:00:32;2.47;;;0.40;;
64520;SDS011;50896;46.714;17.322;2023-08-06T04:02:59;4.25;;;0.30;;
64520;SDS011;50896;46.714;17.322;2023-08-06T04:05:30;1.13;;;0.30;;
64520;SDS011;50896;46.714;17.322;2023-08-06T04:07:58;0.30;;;0.30;;
64520;SDS011;50896;46.714;17.322;2023-08-06T04:10:26;0.93;;;0.30;;
64520;SDS011;50896;46.714;17.322;2023-08-06T04:12:53;1.95;;;0.30;;
64520;SDS011;50896;46.714;17.322;2023-08-06T04:15:19;0.70;;;0.20;;
64520;SDS011;50896;46.714;17.322;2023-08-06T04:17:46;0.55;;;0.22;;
64520;SDS011;50896;46.714;17.322;2023-08-06T04:20:13;3.67;;;0.40;;
64520;SDS011;50896;46.714;17.322;2023-08-06T04:22:40;1.88;;;0.28;;
64520;SDS011;50896;46.714;17.322;2023-08-06T04:25:07;0.28;;;0.22;;
64520;SDS011;50896;46.714;17.322;2023-08-06T04:27:34;1.30;;;0.20;;
64520;SDS011;50896;46.714;17.322;2023-08-06T04:30:01;1.10;;;0.28;;
64520;SDS011;50896;46.714;17.322;2023-08-06T04:32:28;0.40;;;0.25;;
64520;SDS011;50896;46.714;17.322;2023-08-06T04:34:56;1.85;;;0.15;;
64520;SDS011;50896;46.714;17.322;2023-08-06T04:37:24;0.70;;;0.20;;
64520;SDS011;50896;46.714;17.322;2023-08-06T04:39:50;0.20;;;0.10;;
64520;SDS011;50896;46.714;17.322;2023-08-06T04:42:18;0.20;;;0.20;;
64520;SDS011;50896;46.714;17.322;2023-08-06T04:44:45;0.73;;;0.20;;
64520;SDS011;50896;46.714;17.322;2023-08-06T04:47:13;2.30;;;0.20;;
64520;SDS011;50896;46.714;17.322;2023-08-06T04:49:41;1.27;;;0.30;;
64520;SDS011;50896;46.714;17.322;2023-08-06T04:52:08;0.65;;;0.10;;
64520;SDS011;50896;46.714;17.322;2023-08-06T04:54:35;7.88;;;0.30;;
64520;SDS011;50896;46.714;17.322;2023-08-06T04:57:01;2.65;;;0.25;;
64520;SDS011;50896;46.714;17.322;2023-08-06T04:59:28;1.17;;;0.20;;
64520;SDS011;50896;46.714;17.322;2023-08-06T05:01:55;0.45;;;0.10;;
64520;SDS011;50896;46.714;17.322;2023-08-06T05:04:22;0.63;;;0.10;;
64520;SDS011;50896;46.714;17.322;2023-08-06T05:06:49;1.33;;;0.20;;
64520;SDS011;50896;46.714;17.322;2023-08-06T05:09:16;1.75;;;0.10;;
64520;SDS011;50896;46.714;17.322;2023-08-06T05:11:42;1.48;;;0.20;;
64520;SDS011;50896;46.714;17.322;2023-08-06T05:14:09;1.20;;;0.20;;
64520;SDS011;50896;46.714;17.322;2023-08-06T05:16:36;0.20;;;0.10;;
64520;SDS011;50896;46.714;17.322;2023-08-06T05:19:03;2.13;;;0.38;;
64520;SDS011;50896;46.714;17.322;2023-08-06T05:21:30;1.27;;;0.10;;
64520;SDS011;50896;46.714;17.322;2023-08-06T05:23:56;2.08;;;0.17;;
64520;SDS011;50896;46.714;17.322;2023-08-06T05:26:23;0.57;;;0.10;;
64520;SDS011;50896;46.714;17.322;2023-08-06T05:28:50;3.28;;;0.30;;
64520;SDS011;50896;46.714;17.322;2023-08-06T05:31:17;0.95;;;0.10;;
64520;SDS011;50896;46.714;17.322;2023-08-06T05:33:43;1.50;;;0.10;;
64520;SDS011;50896;46.714;17.322;2023-08-06T05:36:11;1.08;;;0.10;;
64520;SDS011;50896;46.714;17.322;2023-08-06T05:38:38;0.73;;;0.10;;
64520;SDS011;50896;46.714;17.322;2023-08-06T05:41:04;0.40;;;0.10;;
64520;SDS011;50896;46.714;17.322;2023-08-06T05:43:31;0.63;;;0.10;;
64520;SDS011;50896;46.714;17.322;2023-08-06T05:45:58;0.65;;;0.10;;
64520;SDS011;50896;46.714;17.322;2023-08-06T05:48:25;0.45;;;0.10;;
64520;SDS011;50896;46.714;17.322;2023-08-06T05:50:52;0.80;;;0.13;;
64520;SDS011;50896;46.714;17.322;2023-08-06T05:53:19;2.30;;;0.20;;
64520;SDS011;50896;46.714;17.322;2023-08-06T05:55:46;3.05;;;0.20;;
64520;SDS011;50896;46.714;17.322;2023-08-06T05:58:13;0.60;;;0.20;;
64520;SDS011;50896;46.714;17.322;2023-08-06T06:00:40;1.02;;;0.10;;
64520;SDS011;50896;46.714;17.322;2023-08-06T06:03:07;0.30;;;0.10;;
64520;SDS011;50896;46.714;17.322;2023-08-06T06:05:35;4.47;;;0.10;;
64520;SDS011;50896;46.714;17.322;2023-08-06T06:08:05;3.20;;;0.20;;
64520;SDS011;50896;46.714;17.322;2023-08-06T06:10:32;0.28;;;0.15;;
64520;SDS011;50896;46.714;17.322;2023-08-06T06:12:58;0.52;;;0.10;;
64520;SDS011;50896;46.714;17.322;2023-08-06T06:15:25;1.45;;;0.15;;
64520;SDS011;50896;46.714;17.322;2023-08-06T06:17:52;0.08;;;0.00;;
64520;SDS011;50896;46.714;17.322;2023-08-06T06:20:19;1.55;;;0.20;;
64520;SDS011;50896;46.714;17.322;2023-08-06T06:22:46;0.20;;;0.10;;
64520;SDS011;50896;46.714;17.322;2023-08-06T06:25:12;0.32;;;0.10;;
64520;SDS011;50896;46.714;17.322;2023-08-06T06:27:40;0.93;;;0.20;;
64520;SDS011;50896;46.714;17.322;2023-08-06T06:30:07;0.68;;;0.10;;
64520;SDS011;50896;46.714;17.322;2023-08-06T06:32:34;0.25;;;0.10;;
64520;SDS011;50896;46.714;17.322;2023-08-06T06:35:01;1.02;;;0.25;;
64520;SDS011;50896;46.714;17.322;2023-08-06T06:37:28;0.75;;;0.10;;
64520;SDS011;50896;46.714;17.322;2023-08-06T06:39:55;0.20;;;0.10;;
64520;SDS011;50896;46.714;17.322;2023-08-06T06:42:21;0.10;;;0.00;;
64520;SDS011;50896;46.714;17.322;2023-08-06T06:44:51;0.20;;;0.05;;
64520;SDS011;50896;46.714;17.322;2023-08-06T06:47:18;0.40;;;0.10;;
64520;SDS011;50896;46.714;17.322;2023-08-06T06:49:44;0.52;;;0.10;;
64520;SDS011;50896;46.714;17.322;2023-08-06T06:52:11;0.20;;;0.10;;
64520;SDS011;50896;46.714;17.322;2023-08-06T06:54:38;0.00;;;0.00;;
64520;SDS011;50896;46.714;17.322;2023-08-06T06:57:05;0.22;;;0.13;;
64520;SDS011;50896;46.714;17.322;2023-08-06T06:59:32;0.52;;;0.03;;
64520;SDS011;50896;46.714;17.322;2023-08-06T07:01:59;0.25;;;0.03;;
64520;SDS011;50896;46.714;17.322;2023-08-06T07:04:26;1.25;;;0.10;;
64520;SDS011;50896;46.714;17.322;2023-08-06T07:06:52;0.47;;;0.03;;
64520;SDS011;50896;46.714;17.322;2023-08-06T07:09:20;0.10;;;0.10;;
64520;SDS011;50896;46.714;17.322;2023-08-06T07:11:47;0.45;;;0.00;;
64520;SDS011;50896;46.714;17.322;2023-08-06T07:14:14;0.20;;;0.10;;
64520;SDS011;50896;46.714;17.322;2023-08-06T07:16:41;0.32;;;0.10;;
64520;SDS011;50896;46.714;17.322;2023-08-06T07:19:07;0.32;;;0.05;;
64520;SDS011;50896;46.714;17.322;2023-08-06T07:21:34;0.20;;;0.00;;
64520;SDS011;50896;46.714;17.322;2023-08-06T07:24:01;0.22;;;0.00;;
64520;SDS011;50896;46.714;17.322;2023-08-06T07:26:28;0.38;;;0.10;;
64520;SDS011;50896;46.714;17.322;2023-08-06T07:28:55;0.00;;;0.00;;
64520;SDS011;50896;46.714;17.322;2023-08-06T07:31:22;2.55;;;0.08;;
64520;SDS011;50896;46.714;17.322;2023-08-06T07:33:48;0.00;;;0.00;;
64520;SDS011;50896;46.714;17.322;2023-08-06T07:36:15;0.25;;;0.10;;
64520;SDS011;50896;46.714;17.322;2023-08-06T07:38:42;0.00;;;0.00;;
64520;SDS011;50896;46.714;17.322;2023-08-06T07:41:09;1.10;;;0.10;;
64520;SDS011;50896;46.714;17.322;2023-08-06T07:43:36;0.10;;;0.10;;
64520;SDS011;50896;46.714;17.322;2023-08-06T07:46:03;1.45;;;0.10;;
64520;SDS011;50896;46.714;17.322;2023-08-06T07:48:30;0.20;;;0.10;;
64520;SDS011;50896;46.714;17.322;2023-08-06T07:50:57;0.45;;;0.03;;
64520;SDS011;50896;46.714;17.322;2023-08-06T07:53:24;0.10;;;0.00;;
64520;SDS011;50896;46.714;17.322;2023-08-06T07:55:53;1.00;;;0.10;;
64520;SDS011;50896;46.714;17.322;2023-08-06T07:58:20;0.40;;;0.10;;
64520;SDS011;50896;46.714;17.322;2023-08-06T08:00:48;0.30;;;0.10;;
64520;SDS011;50896;46.714;17.322;2023-08-06T08:03:15;0.10;;;0.10;;
64520;SDS011;50896;46.714;17.322;2023-08-06T08:05:42;1.00;;;0.10;;
64520;SDS011;50896;46.714;17.322;2023-08-06T08:08:10;0.30;;;0.20;;
64520;SDS011;50896;46.714;17.322;2023-08-06T08:10:37;0.30;;;0.15;;
64520;SDS011;50896;46.714;17.322;2023-08-06T08:13:05;1.45;;;0.10;;
64520;SDS011;50896;46.714;17.322;2023-08-06T08:15:32;1.85;;;0.20;;
64520;SDS011;50896;46.714;17.322;2023-08-06T08:18:00;0.10;;;0.00;;
64520;SDS011;50896;46.714;17.322;2023-08-06T08:20:27;1.23;;;0.17;;
64520;SDS011;50896;46.714;17.322;2023-08-06T08:22:59;0.20;;;0.20;;
64520;SDS011;50896;46.714;17.322;2023-08-06T08:25:27;0.57;;;0.10;;
64520;SDS011;50896;46.714;17.322;2023-08-06T08:27:56;0.93;;;0.20;;
64520;SDS011;50896;46.714;17.322;2023-08-06T08:30:24;0.45;;;0.30;;
64520;SDS011;50896;46.714;17.322;2023-08-06T08:32:53;0.35;;;0.20;;
64520;SDS011;50896;46.714;17.322;2023-08-06T08:35:20;0.10;;;0.10;;
64520;SDS011;50896;46.714;17.322;2023-08-06T08:37:46;1.48;;;0.40;;
64520;SDS011;50896;46.714;17.322;2023-08-06T08:40:14;1.23;;;0.20;;
64520;SDS011;50896;46.714;17.322;2023-08-06T08:42:41;0.25;;;0.20;;
64520;SDS011;50896;46.714;17.322;2023-08-06T08:45:13;0.47;;;0.20;;
64520;SDS011;50896;46.714;17.322;2023-08-06T08:47:41;1.40;;;0.30;;
64520;SDS011;50896;46.714;17.322;2023-08-06T08:50:13;0.73;;;0.20;;
64520;SDS011;50896;46.714;17.322;2023-08-06T08:52:41;0.30;;;0.30;;
64520;SDS011;50896;46.714;17.322;2023-08-06T08:55:12;1.08;;;0.38;;
64520;SDS011;50896;46.714;17.322;2023-08-06T08:57:42;0.98;;;0.30;;
64520;SDS011;50896;46.714;17.322;2023-08-06T09:00:10;0.22;;;0.20;;
64520;SDS011;50896;46.714;17.322;2023-08-06T09:02:37;3.00;;;0.20;;
64520;SDS011;50896;46.714;17.322;2023-08-06T09:05:05;0.10;;;0.10;;
64520;SDS011;50896;46.714;17.322;2023-08-06T09:07:38;3.08;;;0.38;;
64520;SDS011;50896;46.714;17.322;2023-08-06T09:10:10;1.67;;;0.30;;
64520;SDS011;50896;46.714;17.322;2023-08-06T09:12:40;0.85;;;0.20;;
64520;SDS011;50896;46.714;17.322;2023-08-06T09:15:08;1.08;;;0.30;;
64520;SDS011;50896;46.714;17.322;2023-08-06T09:17:35;2.17;;;0.22;;
64520;SDS011;50896;46.714;17.322;2023-08-06T09:20:12;0.63;;;0.20;;
64520;SDS011;50896;46.714;17.322;2023-08-06T09:22:40;1.08;;;0.20;;
64520;SDS011;50896;46.714;17.322;2023-08-06T09:25:08;0.20;;;0.10;;
64520;SDS011;50896;46.714;17.322;2023-08-06T09:27:40;4.13;;;0.20;;
64520;SDS011;50896;46.714;17.322;2023-08-06T09:30:07;1.17;;;0.10;;
64520;SDS011;50896;46.714;17.322;2023-08-06T09:32:56;0.88;;;0.20;;
64520;SDS011;50896;46.714;17.322;2023-08-06T09:35:21;0.60;;;0.20;;
64520;SDS011;50896;46.714;17.322;2023-08-06T09:37:48;1.17;;;0.10;;
64520;SDS011;50896;46.714;17.322;2023-08-06T09:40:25;0.10;;;0.10;;
64520;SDS011;50896;46.714;17.322;2023-08-06T09:42:56;0.20;;;0.10;;
64520;SDS011;50896;46.714;17.322;2023-08-06T09:45:31;0.75;;;0.20;;
64520;SDS011;50896;46.714;17.322;2023-08-06T09:48:00;0.30;;;0.30;;
64520;SDS011;50896;46.714;17.322;2023-08-06T09:50:30;1.42;;;0.35;;
64520;SDS011;50896;46.714;17.322;2023-08-06T09:52:58;0.13;;;0.13;;
64520;SDS011;50896;46.714;17.322;2023-08-06T09:55:26;0.40;;;0.40;;
64520;SDS011;50896;46.714;17.322;2023-08-06T09:57:53;0.40;;;0.30;;
64520;SDS011;50896;46.714;17.322;2023-08-06T10:00:21;0.35;;;0.20;;
64520;SDS011;50896;46.714;17.322;2023-08-06T10:02:49;0.85;;;0.30;;
64520;SDS011;50896;46.714;17.322;2023-08-06T10:05:20;0.08;;;0.08;;
64520;SDS011;50896;46.714;17.322;2023-08-06T10:07:48;0.25;;;0.17;;
64520;SDS011;50896;46.714;17.322;2023-08-06T10:10:17;0.47;;;0.20;;
64520;SDS011;50896;46.714;17.322;2023-08-06T10:12:48;0.73;;;0.25;;
64520;SDS011;50896;46.714;17.322;2023-08-06T10:15:17;0.20;;;0.20;;
64520;SDS011;50896;46.714;17.322;2023-08-06T10:17:51;1.27;;;0.30;;
64520;SDS011;50896;46.714;17.322;2023-08-06T10:20:19;0.20;;;0.20;;
64520;SDS011;50896;46.714;17.322;2023-08-06T10:22:59;0.25;;;0.20;;
64520;SDS011;50896;46.714;17.322;2023-08-06T10:25:30;1.08;;;0.30;;
64520;SDS011;50896;46.714;17.322;2023-08-06T10:27:59;0.17;;;0.17;;
64520;SDS011;50896;46.714;17.322;2023-08-06T10:30:32;0.38;;;0.38;;
64520;SDS011;50896;46.714;17.322;2023-08-06T10:33:01;1.00;;;0.20;;
64520;SDS011;50896;46.714;17.322;2023-08-06T10:35:30;0.20;;;0.20;;
64520;SDS011;50896;46.714;17.322;2023-08-06T10:38:12;0.40;;;0.20;;
64520;SDS011;50896;46.714;17.322;2023-08-06T10:40:43;0.55;;;0.20;;
64520;SDS011;50896;46.714;17.322;2023-08-06T10:43:33;1.55;;;0.20;;
64520;SDS011;50896;46.714;17.322;2023-08-06T10:46:03;0.45;;;0.28;;
64520;SDS011;50896;46.714;17.322;2023-08-06T10:51:08;2.15;;;0.63;;
64520;SDS011;50896;46.714;17.322;2023-08-06T10:53:37;0.30;;;0.30;;
64520;SDS011;50896;46.714;17.322;2023-08-06T10:58:42;0.30;;;0.30;;
64520;SDS011;50896;46.714;17.322;2023-08-06T11:01:10;0.50;;;0.40;;
64520;SDS011;50896;46.714;17.322;2023-08-06T11:03:37;2.15;;;0.30;;
64520;SDS011;50896;46.714;17.322;2023-08-06T11:06:09;2.03;;;0.25;;
64520;SDS011;50896;46.714;17.322;2023-08-06T11:08:37;1.23;;;0.40;;
64520;SDS011;50896;46.714;17.322;2023-08-06T11:11:11;0.95;;;0.30;;
64520;SDS011;50896;46.714;17.322;2023-08-06T11:13:40;0.32;;;0.30;;
64520;SDS011;50896;46.714;17.322;2023-08-06T11:16:08;0.20;;;0.20;;
64520;SDS011;50896;46.714;17.322;2023-08-06T11:18:36;0.75;;;0.30;;
64520;SDS011;50896;46.714;17.322;2023-08-06T11:21:03;0.55;;;0.20;;
64520;SDS011;50896;46.714;17.322;2023-08-06T11:23:30;0.60;;;0.30;;
64520;SDS011;50896;46.714;17.322;2023-08-06T11:25:57;0.60;;;0.30;;
64520;SDS011;50896;46.714;17.322;2023-08-06T11:28:24;0.20;;;0.20;;
64520;SDS011;50896;46.714;17.322;2023-08-06T11:30:51;0.47;;;0.30;;
64520;SDS011;50896;46.714;17.322;2023-08-06T11:33:25;0.32;;;0.32;;
64520;SDS011;50896;46.714;17.322;2023-08-06T11:35:56;0.30;;;0.20;;
64520;SDS011;50896;46.714;17.322;2023-08-06T11:38:25;1.10;;;0.30;;
64520;SDS011;50896;46.714;17.322;2023-08-06T11:40:53;1.17;;;0.50;;
64520;SDS011;50896;46.714;17.322;2023-08-06T11:43:20;1.40;;;0.60;;
64520;SDS011;50896;46.714;17.322;2023-08-06T11:45:49;1.85;;;0.55;;
64520;SDS011;50896;46.714;17.322;2023-08-06T11:48:17;1.05;;;0.28;;
64520;SDS011;50896;46.714;17.322;2023-08-06T11:50:44;2.88;;;0.30;;
64520;SDS011;50896;46.714;17.322;2023-08-06T11:53:12;1.13;;;0.47;;
64520;SDS011;50896;46.714;17.322;2023-08-06T11:55:40;0.32;;;0.30;;
64520;SDS011;50896;46.714;17.322;2023-08-06T11:58:09;1.08;;;0.52;;
64520;SDS011;50896;46.714;17.322;2023-08-06T12:00:38;0.88;;;0.50;;
64520;SDS011;50896;46.714;17.322;2023-08-06T12:03:05;1.10;;;0.20;;
64520;SDS011;50896;46.714;17.322;2023-08-06T12:05:32;1.38;;;0.50;;
64520;SDS011;50896;46.714;17.322;2023-08-06T12:08:04;0.80;;;0.32;;
64520;SDS011;50896;46.714;17.322;2023-08-06T12:10:32;0.57;;;0.40;;
64520;SDS011;50896;46.714;17.322;2023-08-06T12:12:59;0.30;;;0.30;;
64520;SDS011;50896;46.714;17.322;2023-08-06T12:15:27;2.17;;;0.57;;
64520;SDS011;50896;46.714;17.322;2023-08-06T12:17:56;0.52;;;0.40;;
64520;SDS011;50896;46.714;17.322;2023-08-06T12:20:25;1.55;;;0.50;;
64520;SDS011;50896;46.714;17.322;2023-08-06T12:22:52;0.93;;;0.55;;
64520;SDS011;50896;46.714;17.322;2023-08-06T12:25:19;3.63;;;0.40;;
64520;SDS011;50896;46.714;17.322;2023-08-06T12:27:46;0.43;;;0.40;;
64520;SDS011;50896;46.714;17.322;2023-08-06T12:30:13;1.25;;;0.50;;
64520;SDS011;50896;46.714;17.322;2023-08-06T12:32:40;1.02;;;0.50;;
64520;SDS011;50896;46.714;17.322;2023-08-06T12:35:07;0.40;;;0.40;;
64520;SDS011;50896;46.714;17.322;2023-08-06T12:37:34;0.73;;;0.40;;
64520;SDS011;50896;46.714;17.322;2023-08-06T12:40:02;1.77;;;0.65;;
64520;SDS011;50896;46.714;17.322;2023-08-06T12:42:50;0.50;;;0.40;;
64520;SDS011;50896;46.714;17.322;2023-08-06T12:45:17;1.23;;;0.30;;
64520;SDS011;50896;46.714;17.322;2023-08-06T12:47:47;0.70;;;0.50;;
64520;SDS011;50896;46.714;17.322;2023-08-06T12:50:15;0.30;;;0.30;;
64520;SDS011;50896;46.714;17.322;2023-08-06T12:52:44;0.73;;;0.50;;
64520;SDS011;50896;46.714;17.322;2023-08-06T12:55:10;1.27;;;0.70;;
64520;SDS011;50896;46.714;17.322;2023-08-06T12:57:37;1.25;;;0.40;;
64520;SDS011;50896;46.714;17.322;2023-08-06T13:00:21;0.85;;;0.43;;
64520;SDS011;50896;46.714;17.322;2023-08-06T13:02:48;1.65;;;0.60;;
64520;SDS011;50896;46.714;17.322;2023-08-06T13:05:15;0.93;;;0.30;;
64520;SDS011;50896;46.714;17.322;2023-08-06T13:07:42;0.75;;;0.50;;
64520;SDS011;50896;46.714;17.322;2023-08-06T13:10:08;1.23;;;0.40;;
64520;SDS011;50896;46.714;17.322;2023-08-06T13:12:35;0.50;;;0.40;;
64520;SDS011;50896;46.714;17.322;2023-08-06T13:15:02;0.70;;;0.55;;
64520;SDS011;50896;46.714;17.322;2023-08-06T13:17:29;2.17;;;0.50;;
64520;SDS011;50896;46.714;17.322;2023-08-06T13:19:56;0.38;;;0.30;;
64520;SDS011;50896;46.714;17.322;2023-08-06T13:22:24;1.75;;;0.50;;
64520;SDS011;50896;46.714;17.322;2023-08-06T13:24:50;0.52;;;0.43;;
64520;SDS011;50896;46.714;17.322;2023-08-06T13:27:17;0.40;;;0.40;;
64520;SDS011;50896;46.714;17.322;2023-08-06T13:29:44;0.63;;;0.45;;
64520;SDS011;50896;46.714;17.322;2023-08-06T13:32:11;0.60;;;0.43;;
64520;SDS011;50896;46.714;17.322;2023-08-06T13:34:37;3.30;;;0.47;;
64520;SDS011;50896;46.714;17.322;2023-08-06T13:37:04;0.63;;;0.47;;
64520;SDS011;50896;46.714;17.322;2023-08-06T13:39:31;0.65;;;0.40;;
64520;SDS011;50896;46.714;17.322;2023-08-06T13:41:58;1.02;;;0.40;;
64520;SDS011;50896;46.714;17.322;2023-08-06T13:44:25;0.30;;;0.30;;
64520;SDS011;50896;46.714;17.322;2023-08-06T13:46:51;0.85;;;0.40;;
64520;SDS011;50896;46.714;17.322;2023-08-06T13:49:19;0.95;;;0.30;;
64520;SDS011;50896;46.714;17.322;2023-08-06T13:51:45;0.43;;;0.40;;
64520;SDS011;50896;46.714;17.322;2023-08-06T13:54:12;1.23;;;0.35;;
64520;SDS011;50896;46.714;17.322;2023-08-06T13:56:39;0.88;;;0.47;;
64520;SDS011;50896;46.714;17.322;2023-08-06T13:59:06;1.85;;;0.47;;
64520;SDS011;50896;46.714;17.322;2023-08-06T14:01:33;0.40;;;0.40;;
64520;SDS011;50896;46.714;17.322;2023-08-06T14:04:17;0.82;;;0.40;;
64520;SDS011;50896;46.714;17.322;2023-08-06T14:06:43;1.55;;;0.32;;
64520;SDS011;50896;46.714;17.322;2023-08-06T14:09:10;0.30;;;0.30;;
64520;SDS011;50896;46.714;17.322;2023-08-06T14:14:07;0.20;;;0.20;;
64520;SDS011;50896;46.714;17.322;2023-08-06T14:16:34;0.57;;;0.47;;
64520;SDS011;50896;46.714;17.322;2023-08-06T14:19:01;0.88;;;0.38;;
64520;SDS011;50896;46.714;17.322;2023-08-06T14:21:27;0.50;;;0.40;;
64520;SDS011;50896;46.714;17.322;2023-08-06T14:23:54;1.15;;;0.40;;
64520;SDS011;50896;46.714;17.322;2023-08-06T14:26:21;0.45;;;0.32;;
64520;SDS011;50896;46.714;17.322;2023-08-06T14:28:48;0.68;;;0.50;;
64520;SDS011;50896;46.714;17.322;2023-08-06T14:31:15;3.05;;;0.40;;
64520;SDS011;50896;46.714;17.322;2023-08-06T14:33:42;1.27;;;0.68;;
64520;SDS011;50896;46.714;17.322;2023-08-06T14:36:09;0.75;;;0.40;;
64520;SDS011;50896;46.714;17.322;2023-08-06T14:38:36;1.02;;;0.40;;
64520;SDS011;50896;46.714;17.322;2023-08-06T14:41:11;0.88;;;0.40;;
64520;SDS011;50896;46.714;17.322;2023-08-06T14:43:38;0.40;;;0.40;;
64520;SDS011;50896;46.714;17.322;2023-08-06T14:46:05;0.65;;;0.50;;
64520;SDS011;50896;46.714;17.322;2023-08-06T14:48:32;0.70;;;0.50;;
64520;SDS011;50896;46.714;17.322;2023-08-06T14:50:59;0.43;;;0.43;;
64520;SDS011;50896;46.714;17.322;2023-08-06T14:53:27;0.70;;;0.40;;
64520;SDS011;50896;46.714;17.322;2023-08-06T14:55:54;1.10;;;0.40;;
64520;SDS011;50896;46.714;17.322;2023-08-06T14:58:20;0.40;;;0.30;;
64520;SDS011;50896;46.714;17.322;2023-08-06T15:00:47;0.40;;;0.40;;